Terminal Aerodrome Forecast
Issued by NWS Flagstaff, AZ

Home | Current Version | Previous Version | Text Only | Print | Product List | Glossary On
Versions: 1 2 3 4 5 6 7 8 9 10 11 12 13 14 15 16 17 18 19 20 21 22
000
FTUS45 KFGZ 200500 AAA
TAFFLG
TAF AMD
KFLG 200540Z 2006/2106 VRB05KT P6SM SCT012 SCT110
      TEMPO 2007/2009 BKN010
     FM200900 00000KT P6SM VCFG BKN005
     FM201600 VRB05KT P6SM SCT005
     FM201900 22008KT P6SM VCTS BKN060CB
      TEMPO 2020/2024 VRB15G25KT 3SM TSRA BKN030CB=

USA.gov is the U.S. government's official web portal to all federal, state and local government web resources and services.